sensor_id;sensor_type;location;lat;lon;timestamp;P1;durP1;ratioP1;P2;durP2;ratioP2
24147;SDS011;12309;51.450;-2.624;2023-04-07T00:01:22;9.87;;;1.53;;
24147;SDS011;12309;51.450;-2.624;2023-04-07T00:03:47;7.37;;;1.63;;
24147;SDS011;12309;51.450;-2.624;2023-04-07T00:06:13;6.60;;;1.57;;
24147;SDS011;12309;51.450;-2.624;2023-04-07T00:08:39;3.87;;;1.10;;
24147;SDS011;12309;51.450;-2.624;2023-04-07T00:11:05;6.43;;;1.57;;
24147;SDS011;12309;51.450;-2.624;2023-04-07T00:13:31;9.77;;;1.60;;
24147;SDS011;12309;51.450;-2.624;2023-04-07T00:15:56;4.90;;;1.50;;
24147;SDS011;12309;51.450;-2.624;2023-04-07T00:18:22;6.60;;;1.70;;
24147;SDS011;12309;51.450;-2.624;2023-04-07T00:20:48;18.83;;;1.83;;
24147;SDS011;12309;51.450;-2.624;2023-04-07T00:23:13;6.10;;;1.57;;
24147;SDS011;12309;51.450;-2.624;2023-04-07T00:25:39;4.83;;;1.50;;
24147;SDS011;12309;51.450;-2.624;2023-04-07T00:28:05;5.33;;;1.53;;
24147;SDS011;12309;51.450;-2.624;2023-04-07T00:30:30;5.83;;;1.20;;
24147;SDS011;12309;51.450;-2.624;2023-04-07T00:32:56;4.87;;;1.20;;
24147;SDS011;12309;51.450;-2.624;2023-04-07T00:35:21;6.80;;;1.60;;
24147;SDS011;12309;51.450;-2.624;2023-04-07T00:37:47;4.33;;;1.20;;
24147;SDS011;12309;51.450;-2.624;2023-04-07T00:40:13;3.40;;;1.13;;
24147;SDS011;12309;51.450;-2.624;2023-04-07T00:42:38;4.87;;;1.20;;
24147;SDS011;12309;51.450;-2.624;2023-04-07T00:45:04;4.23;;;1.30;;
24147;SDS011;12309;51.450;-2.624;2023-04-07T00:47:30;8.67;;;1.70;;
24147;SDS011;12309;51.450;-2.624;2023-04-07T00:49:56;3.73;;;1.30;;
24147;SDS011;12309;51.450;-2.624;2023-04-07T00:52:21;3.90;;;1.27;;
24147;SDS011;12309;51.450;-2.624;2023-04-07T00:54:56;7.20;;;1.43;;
24147;SDS011;12309;51.450;-2.624;2023-04-07T00:57:21;5.27;;;1.43;;
24147;SDS011;12309;51.450;-2.624;2023-04-07T00:59:51;8.30;;;1.53;;
24147;SDS011;12309;51.450;-2.624;2023-04-07T01:07:57;5.70;;;1.60;;
24147;SDS011;12309;51.450;-2.624;2023-04-07T01:10:32;8.80;;;1.60;;
24147;SDS011;12309;51.450;-2.624;2023-04-07T01:13:07;6.17;;;1.23;;
24147;SDS011;12309;51.450;-2.624;2023-04-07T01:15:42;4.60;;;1.07;;
24147;SDS011;12309;51.450;-2.624;2023-04-07T01:18:14;3.13;;;1.40;;
24147;SDS011;12309;51.450;-2.624;2023-04-07T01:20:46;11.60;;;2.00;;
24147;SDS011;12309;51.450;-2.624;2023-04-07T01:23:35;6.43;;;1.30;;
24147;SDS011;12309;51.450;-2.624;2023-04-07T01:31:36;4.43;;;1.43;;
24147;SDS011;12309;51.450;-2.624;2023-04-07T01:34:05;3.77;;;1.23;;
24147;SDS011;12309;51.450;-2.624;2023-04-07T01:36:33;6.47;;;1.40;;
24147;SDS011;12309;51.450;-2.624;2023-04-07T01:38:59;8.87;;;1.37;;
24147;SDS011;12309;51.450;-2.624;2023-04-07T01:41:25;5.80;;;1.50;;
24147;SDS011;12309;51.450;-2.624;2023-04-07T01:43:52;4.40;;;1.20;;
24147;SDS011;12309;51.450;-2.624;2023-04-07T01:46:19;4.80;;;1.40;;
24147;SDS011;12309;51.450;-2.624;2023-04-07T01:48:46;7.67;;;1.60;;
24147;SDS011;12309;51.450;-2.624;2023-04-07T01:51:13;4.17;;;1.17;;
24147;SDS011;12309;51.450;-2.624;2023-04-07T01:53:42;4.50;;;1.60;;
24147;SDS011;12309;51.450;-2.624;2023-04-07T01:56:10;3.73;;;1.10;;
24147;SDS011;12309;51.450;-2.624;2023-04-07T01:58:36;7.10;;;1.00;;
24147;SDS011;12309;51.450;-2.624;2023-04-07T02:01:01;7.47;;;1.33;;
24147;SDS011;12309;51.450;-2.624;2023-04-07T02:03:32;7.17;;;1.17;;
24147;SDS011;12309;51.450;-2.624;2023-04-07T02:06:07;4.33;;;1.27;;
24147;SDS011;12309;51.450;-2.624;2023-04-07T02:08:35;8.97;;;1.07;;
24147;SDS011;12309;51.450;-2.624;2023-04-07T02:11:03;6.90;;;1.13;;
24147;SDS011;12309;51.450;-2.624;2023-04-07T02:13:31;4.87;;;1.00;;
24147;SDS011;12309;51.450;-2.624;2023-04-07T02:15:59;6.70;;;1.23;;
24147;SDS011;12309;51.450;-2.624;2023-04-07T02:18:26;1.53;;;0.80;;
24147;SDS011;12309;51.450;-2.624;2023-04-07T02:20:54;7.87;;;1.37;;
24147;SDS011;12309;51.450;-2.624;2023-04-07T02:23:20;6.00;;;0.70;;
24147;SDS011;12309;51.450;-2.624;2023-04-07T02:25:46;2.83;;;1.13;;
24147;SDS011;12309;51.450;-2.624;2023-04-07T02:28:12;3.67;;;1.10;;
24147;SDS011;12309;51.450;-2.624;2023-04-07T02:30:37;6.77;;;1.23;;
24147;SDS011;12309;51.450;-2.624;2023-04-07T02:33:04;8.73;;;0.90;;
24147;SDS011;12309;51.450;-2.624;2023-04-07T02:35:29;4.07;;;1.33;;
24147;SDS011;12309;51.450;-2.624;2023-04-07T02:37:55;4.50;;;0.83;;
24147;SDS011;12309;51.450;-2.624;2023-04-07T02:40:21;7.50;;;1.23;;
24147;SDS011;12309;51.450;-2.624;2023-04-07T02:42:46;6.57;;;0.97;;
24147;SDS011;12309;51.450;-2.624;2023-04-07T02:45:12;5.77;;;1.00;;
24147;SDS011;12309;51.450;-2.624;2023-04-07T02:47:38;6.37;;;1.17;;
24147;SDS011;12309;51.450;-2.624;2023-04-07T02:50:04;10.40;;;1.40;;
24147;SDS011;12309;51.450;-2.624;2023-04-07T02:52:30;5.70;;;1.07;;
24147;SDS011;12309;51.450;-2.624;2023-04-07T02:54:56;5.93;;;1.07;;
24147;SDS011;12309;51.450;-2.624;2023-04-07T02:57:21;5.13;;;1.20;;
24147;SDS011;12309;51.450;-2.624;2023-04-07T02:59:47;11.90;;;1.33;;
24147;SDS011;12309;51.450;-2.624;2023-04-07T03:02:12;6.50;;;1.03;;
24147;SDS011;12309;51.450;-2.624;2023-04-07T03:04:38;3.03;;;0.90;;
24147;SDS011;12309;51.450;-2.624;2023-04-07T03:07:04;5.83;;;1.30;;
24147;SDS011;12309;51.450;-2.624;2023-04-07T03:09:29;4.17;;;1.13;;
24147;SDS011;12309;51.450;-2.624;2023-04-07T03:11:55;5.73;;;1.23;;
24147;SDS011;12309;51.450;-2.624;2023-04-07T03:14:21;4.87;;;1.40;;
24147;SDS011;12309;51.450;-2.624;2023-04-07T03:16:46;6.17;;;1.10;;
24147;SDS011;12309;51.450;-2.624;2023-04-07T03:19:12;9.07;;;1.30;;
24147;SDS011;12309;51.450;-2.624;2023-04-07T03:21:38;4.40;;;1.20;;
24147;SDS011;12309;51.450;-2.624;2023-04-07T03:24:06;6.37;;;1.03;;
24147;SDS011;12309;51.450;-2.624;2023-04-07T03:26:32;2.77;;;0.90;;
24147;SDS011;12309;51.450;-2.624;2023-04-07T03:28:58;3.63;;;1.20;;
24147;SDS011;12309;51.450;-2.624;2023-04-07T03:31:23;4.67;;;1.17;;
24147;SDS011;12309;51.450;-2.624;2023-04-07T03:33:49;7.23;;;1.40;;
24147;SDS011;12309;51.450;-2.624;2023-04-07T03:36:15;4.77;;;1.13;;
24147;SDS011;12309;51.450;-2.624;2023-04-07T03:38:45;4.87;;;1.50;;
24147;SDS011;12309;51.450;-2.624;2023-04-07T03:41:11;6.23;;;1.10;;
24147;SDS011;12309;51.450;-2.624;2023-04-07T03:43:37;3.13;;;1.10;;
24147;SDS011;12309;51.450;-2.624;2023-04-07T03:46:03;7.27;;;1.73;;
24147;SDS011;12309;51.450;-2.624;2023-04-07T03:48:29;6.27;;;1.23;;
24147;SDS011;12309;51.450;-2.624;2023-04-07T03:50:55;3.30;;;1.00;;
24147;SDS011;12309;51.450;-2.624;2023-04-07T03:53:21;8.60;;;1.17;;
24147;SDS011;12309;51.450;-2.624;2023-04-07T03:55:47;6.70;;;1.20;;
24147;SDS011;12309;51.450;-2.624;2023-04-07T03:58:12;4.40;;;1.40;;
24147;SDS011;12309;51.450;-2.624;2023-04-07T04:00:38;5.07;;;1.53;;
24147;SDS011;12309;51.450;-2.624;2023-04-07T04:03:04;6.50;;;1.33;;
24147;SDS011;12309;51.450;-2.624;2023-04-07T04:05:30;4.63;;;1.00;;
24147;SDS011;12309;51.450;-2.624;2023-04-07T04:07:55;10.83;;;1.67;;
24147;SDS011;12309;51.450;-2.624;2023-04-07T04:10:21;9.67;;;1.47;;
24147;SDS011;12309;51.450;-2.624;2023-04-07T04:12:47;2.20;;;1.50;;
24147;SDS011;12309;51.450;-2.624;2023-04-07T04:15:13;6.23;;;1.53;;
24147;SDS011;12309;51.450;-2.624;2023-04-07T04:17:40;8.20;;;1.50;;
24147;SDS011;12309;51.450;-2.624;2023-04-07T04:20:06;4.27;;;1.20;;
24147;SDS011;12309;51.450;-2.624;2023-04-07T04:22:32;7.70;;;1.37;;
24147;SDS011;12309;51.450;-2.624;2023-04-07T04:24:59;6.60;;;1.90;;
24147;SDS011;12309;51.450;-2.624;2023-04-07T04:27:25;6.47;;;1.40;;
24147;SDS011;12309;51.450;-2.624;2023-04-07T04:29:51;6.50;;;1.20;;
24147;SDS011;12309;51.450;-2.624;2023-04-07T04:32:17;4.33;;;1.50;;
24147;SDS011;12309;51.450;-2.624;2023-04-07T04:34:43;8.90;;;1.53;;
24147;SDS011;12309;51.450;-2.624;2023-04-07T04:37:09;6.97;;;1.40;;
24147;SDS011;12309;51.450;-2.624;2023-04-07T04:39:35;9.13;;;1.40;;
24147;SDS011;12309;51.450;-2.624;2023-04-07T04:42:01;5.80;;;1.30;;
24147;SDS011;12309;51.450;-2.624;2023-04-07T04:44:28;5.33;;;1.50;;
24147;SDS011;12309;51.450;-2.624;2023-04-07T04:46:54;6.90;;;1.20;;
24147;SDS011;12309;51.450;-2.624;2023-04-07T04:49:20;4.23;;;1.20;;
24147;SDS011;12309;51.450;-2.624;2023-04-07T04:51:46;8.30;;;1.30;;
24147;SDS011;12309;51.450;-2.624;2023-04-07T04:54:12;13.87;;;1.10;;
24147;SDS011;12309;51.450;-2.624;2023-04-07T04:56:37;4.90;;;1.20;;
24147;SDS011;12309;51.450;-2.624;2023-04-07T04:59:03;5.17;;;1.33;;
24147;SDS011;12309;51.450;-2.624;2023-04-07T05:01:29;8.67;;;1.57;;
24147;SDS011;12309;51.450;-2.624;2023-04-07T05:03:55;2.57;;;1.30;;
24147;SDS011;12309;51.450;-2.624;2023-04-07T05:06:21;11.07;;;1.13;;
24147;SDS011;12309;51.450;-2.624;2023-04-07T05:08:46;4.50;;;1.20;;
24147;SDS011;12309;51.450;-2.624;2023-04-07T05:11:12;5.97;;;1.30;;
24147;SDS011;12309;51.450;-2.624;2023-04-07T05:13:38;7.90;;;1.60;;
24147;SDS011;12309;51.450;-2.624;2023-04-07T05:16:04;2.27;;;1.20;;
24147;SDS011;12309;51.450;-2.624;2023-04-07T05:18:31;4.33;;;1.40;;
24147;SDS011;12309;51.450;-2.624;2023-04-07T05:20:56;8.37;;;1.50;;
24147;SDS011;12309;51.450;-2.624;2023-04-07T05:23:22;2.77;;;1.10;;
24147;SDS011;12309;51.450;-2.624;2023-04-07T05:25:47;7.00;;;1.50;;
24147;SDS011;12309;51.450;-2.624;2023-04-07T05:28:13;8.77;;;1.30;;
24147;SDS011;12309;51.450;-2.624;2023-04-07T05:30:39;3.47;;;1.20;;
24147;SDS011;12309;51.450;-2.624;2023-04-07T05:33:05;11.17;;;1.70;;
24147;SDS011;12309;51.450;-2.624;2023-04-07T05:35:30;5.90;;;1.33;;
24147;SDS011;12309;51.450;-2.624;2023-04-07T05:37:56;1.70;;;1.13;;
24147;SDS011;12309;51.450;-2.624;2023-04-07T05:40:21;7.97;;;1.37;;
24147;SDS011;12309;51.450;-2.624;2023-04-07T05:42:48;5.67;;;1.40;;
24147;SDS011;12309;51.450;-2.624;2023-04-07T05:45:14;3.93;;;1.47;;
24147;SDS011;12309;51.450;-2.624;2023-04-07T05:47:40;4.57;;;1.60;;
24147;SDS011;12309;51.450;-2.624;2023-04-07T05:50:06;8.53;;;1.57;;
24147;SDS011;12309;51.450;-2.624;2023-04-07T05:52:32;5.93;;;1.70;;
24147;SDS011;12309;51.450;-2.624;2023-04-07T05:54:58;7.13;;;1.10;;
24147;SDS011;12309;51.450;-2.624;2023-04-07T05:57:23;7.80;;;1.63;;
24147;SDS011;12309;51.450;-2.624;2023-04-07T05:59:51;5.00;;;1.63;;
24147;SDS011;12309;51.450;-2.624;2023-04-07T06:02:17;9.57;;;1.60;;
24147;SDS011;12309;51.450;-2.624;2023-04-07T06:04:42;3.77;;;1.40;;
24147;SDS011;12309;51.450;-2.624;2023-04-07T06:07:08;3.20;;;1.17;;
24147;SDS011;12309;51.450;-2.624;2023-04-07T06:09:33;9.73;;;1.60;;
24147;SDS011;12309;51.450;-2.624;2023-04-07T06:11:59;9.47;;;1.57;;
24147;SDS011;12309;51.450;-2.624;2023-04-07T06:14:25;2.27;;;1.13;;
24147;SDS011;12309;51.450;-2.624;2023-04-07T06:16:51;7.20;;;1.77;;
24147;SDS011;12309;51.450;-2.624;2023-04-07T06:19:16;6.50;;;1.60;;
24147;SDS011;12309;51.450;-2.624;2023-04-07T06:21:42;9.30;;;1.87;;
24147;SDS011;12309;51.450;-2.624;2023-04-07T06:24:08;10.83;;;1.83;;
24147;SDS011;12309;51.450;-2.624;2023-04-07T06:26:33;6.73;;;1.60;;
24147;SDS011;12309;51.450;-2.624;2023-04-07T06:28:59;8.73;;;1.77;;
24147;SDS011;12309;51.450;-2.624;2023-04-07T06:31:25;5.70;;;1.90;;
24147;SDS011;12309;51.450;-2.624;2023-04-07T06:33:52;9.13;;;1.67;;
24147;SDS011;12309;51.450;-2.624;2023-04-07T06:36:17;5.87;;;1.70;;
24147;SDS011;12309;51.450;-2.624;2023-04-07T06:38:43;5.37;;;1.63;;
24147;SDS011;12309;51.450;-2.624;2023-04-07T06:41:09;6.07;;;1.80;;
24147;SDS011;12309;51.450;-2.624;2023-04-07T06:43:40;7.40;;;1.97;;
24147;SDS011;12309;51.450;-2.624;2023-04-07T06:46:07;6.43;;;1.70;;
24147;SDS011;12309;51.450;-2.624;2023-04-07T06:48:33;5.23;;;1.83;;
24147;SDS011;12309;51.450;-2.624;2023-04-07T06:50:59;6.97;;;2.00;;
24147;SDS011;12309;51.450;-2.624;2023-04-07T06:53:25;9.30;;;1.97;;
24147;SDS011;12309;51.450;-2.624;2023-04-07T06:55:50;9.50;;;1.93;;
24147;SDS011;12309;51.450;-2.624;2023-04-07T06:58:16;6.33;;;2.03;;
24147;SDS011;12309;51.450;-2.624;2023-04-07T07:00:41;4.50;;;1.97;;
24147;SDS011;12309;51.450;-2.624;2023-04-07T07:03:07;8.27;;;2.10;;
24147;SDS011;12309;51.450;-2.624;2023-04-07T07:05:33;6.03;;;2.17;;
24147;SDS011;12309;51.450;-2.624;2023-04-07T07:07:58;4.80;;;2.20;;
24147;SDS011;12309;51.450;-2.624;2023-04-07T07:10:24;7.47;;;2.17;;
24147;SDS011;12309;51.450;-2.624;2023-04-07T07:12:50;7.00;;;2.23;;
24147;SDS011;12309;51.450;-2.624;2023-04-07T07:15:15;5.97;;;1.87;;
24147;SDS011;12309;51.450;-2.624;2023-04-07T07:17:42;9.90;;;2.80;;
24147;SDS011;12309;51.450;-2.624;2023-04-07T07:20:08;8.10;;;2.03;;
24147;SDS011;12309;51.450;-2.624;2023-04-07T07:22:34;6.60;;;2.30;;
24147;SDS011;12309;51.450;-2.624;2023-04-07T07:24:59;6.87;;;1.90;;
24147;SDS011;12309;51.450;-2.624;2023-04-07T07:27:25;5.70;;;2.10;;
24147;SDS011;12309;51.450;-2.624;2023-04-07T07:29:51;8.70;;;1.90;;
24147;SDS011;12309;51.450;-2.624;2023-04-07T07:32:16;7.73;;;2.30;;
24147;SDS011;12309;51.450;-2.624;2023-04-07T07:34:42;10.33;;;2.50;;
24147;SDS011;12309;51.450;-2.624;2023-04-07T07:37:08;9.50;;;2.40;;
24147;SDS011;12309;51.450;-2.624;2023-04-07T07:39:33;8.23;;;2.33;;
24147;SDS011;12309;51.450;-2.624;2023-04-07T07:41:59;7.03;;;2.03;;
24147;SDS011;12309;51.450;-2.624;2023-04-07T07:44:25;8.73;;;2.20;;
24147;SDS011;12309;51.450;-2.624;2023-04-07T07:46:51;9.60;;;2.40;;
24147;SDS011;12309;51.450;-2.624;2023-04-07T07:49:16;7.73;;;2.30;;
24147;SDS011;12309;51.450;-2.624;2023-04-07T07:51:42;6.73;;;2.70;;
24147;SDS011;12309;51.450;-2.624;2023-04-07T07:54:08;6.20;;;2.70;;
24147;SDS011;12309;51.450;-2.624;2023-04-07T07:56:34;11.40;;;3.03;;
24147;SDS011;12309;51.450;-2.624;2023-04-07T07:59:00;8.97;;;2.63;;
24147;SDS011;12309;51.450;-2.624;2023-04-07T08:01:26;5.87;;;2.53;;
24147;SDS011;12309;51.450;-2.624;2023-04-07T08:03:51;7.63;;;1.90;;
24147;SDS011;12309;51.450;-2.624;2023-04-07T08:06:17;8.83;;;1.40;;
24147;SDS011;12309;51.450;-2.624;2023-04-07T08:08:42;4.87;;;0.83;;
24147;SDS011;12309;51.450;-2.624;2023-04-07T08:11:08;7.00;;;1.20;;
24147;SDS011;12309;51.450;-2.624;2023-04-07T08:13:34;2.77;;;1.17;;
24147;SDS011;12309;51.450;-2.624;2023-04-07T08:15:59;5.20;;;1.30;;
24147;SDS011;12309;51.450;-2.624;2023-04-07T08:18:25;4.33;;;1.30;;
24147;SDS011;12309;51.450;-2.624;2023-04-07T08:20:51;4.72;;;1.10;;
24147;SDS011;12309;51.450;-2.624;2023-04-07T08:23:16;20.10;;;1.67;;
24147;SDS011;12309;51.450;-2.624;2023-04-07T08:25:42;8.65;;;1.63;;
24147;SDS011;12309;51.450;-2.624;2023-04-07T08:28:08;8.77;;;1.40;;
24147;SDS011;12309;51.450;-2.624;2023-04-07T08:30:34;4.47;;;1.10;;
24147;SDS011;12309;51.450;-2.624;2023-04-07T08:32:59;5.22;;;1.33;;
24147;SDS011;12309;51.450;-2.624;2023-04-07T08:35:25;4.22;;;1.23;;
24147;SDS011;12309;51.450;-2.624;2023-04-07T08:37:51;6.65;;;1.42;;
24147;SDS011;12309;51.450;-2.624;2023-04-07T08:40:17;5.70;;;1.35;;
24147;SDS011;12309;51.450;-2.624;2023-04-07T08:42:45;6.80;;;1.05;;
24147;SDS011;12309;51.450;-2.624;2023-04-07T08:45:12;8.18;;;1.33;;
24147;SDS011;12309;51.450;-2.624;2023-04-07T08:47:40;7.13;;;1.48;;
24147;SDS011;12309;51.450;-2.624;2023-04-07T08:50:08;7.30;;;1.42;;
24147;SDS011;12309;51.450;-2.624;2023-04-07T08:52:53;6.78;;;1.30;;
24147;SDS011;12309;51.450;-2.624;2023-04-07T08:55:20;6.38;;;1.30;;
24147;SDS011;12309;51.450;-2.624;2023-04-07T08:57:46;4.72;;;1.02;;
24147;SDS011;12309;51.450;-2.624;2023-04-07T09:00:12;6.43;;;1.45;;
24147;SDS011;12309;51.450;-2.624;2023-04-07T09:02:42;8.38;;;1.42;;
24147;SDS011;12309;51.450;-2.624;2023-04-07T09:05:12;4.95;;;1.40;;
24147;SDS011;12309;51.450;-2.624;2023-04-07T09:07:38;6.18;;;1.35;;
24147;SDS011;12309;51.450;-2.624;2023-04-07T09:10:05;8.50;;;1.50;;
24147;SDS011;12309;51.450;-2.624;2023-04-07T09:12:31;7.60;;;1.30;;
24147;SDS011;12309;51.450;-2.624;2023-04-07T09:14:58;5.18;;;1.20;;
24147;SDS011;12309;51.450;-2.624;2023-04-07T09:17:24;7.93;;;1.50;;
24147;SDS011;12309;51.450;-2.624;2023-04-07T09:19:59;5.07;;;1.45;;
24147;SDS011;12309;51.450;-2.624;2023-04-07T09:22:46;7.55;;;1.55;;
24147;SDS011;12309;51.450;-2.624;2023-04-07T09:25:12;7.43;;;1.40;;
24147;SDS011;12309;51.450;-2.624;2023-04-07T09:30:21;6.30;;;1.50;;
24147;SDS011;12309;51.450;-2.624;2023-04-07T09:32:47;6.18;;;1.33;;
24147;SDS011;12309;51.450;-2.624;2023-04-07T09:35:13;6.97;;;1.50;;
24147;SDS011;12309;51.450;-2.624;2023-04-07T09:37:39;5.68;;;1.40;;
24147;SDS011;12309;51.450;-2.624;2023-04-07T09:40:06;5.30;;;1.30;;
24147;SDS011;12309;51.450;-2.624;2023-04-07T09:42:33;7.88;;;1.08;;
24147;SDS011;12309;51.450;-2.624;2023-04-07T09:45:01;4.85;;;1.20;;
24147;SDS011;12309;51.450;-2.624;2023-04-07T09:47:27;5.55;;;1.30;;
24147;SDS011;12309;51.450;-2.624;2023-04-07T09:49:55;10.13;;;1.50;;
24147;SDS011;12309;51.450;-2.624;2023-04-07T09:52:24;4.65;;;1.23;;
24147;SDS011;12309;51.450;-2.624;2023-04-07T09:55:10;5.57;;;1.48;;
24147;SDS011;12309;51.450;-2.624;2023-04-07T09:57:36;5.40;;;1.65;;
24147;SDS011;12309;51.450;-2.624;2023-04-07T10:00:03;5.95;;;1.58;;
24147;SDS011;12309;51.450;-2.624;2023-04-07T10:02:30;6.72;;;1.38;;
24147;SDS011;12309;51.450;-2.624;2023-04-07T10:04:56;5.40;;;1.83;;
24147;SDS011;12309;51.450;-2.624;2023-04-07T10:07:23;5.45;;;1.35;;
24147;SDS011;12309;51.450;-2.624;2023-04-07T10:09:49;6.03;;;1.20;;
24147;SDS011;12309;51.450;-2.624;2023-04-07T10:12:15;4.68;;;1.50;;
24147;SDS011;12309;51.450;-2.624;2023-04-07T10:14:42;7.60;;;1.45;;
24147;SDS011;12309;51.450;-2.624;2023-04-07T10:17:10;4.82;;;1.20;;
24147;SDS011;12309;51.450;-2.624;2023-04-07T10:19:42;5.70;;;1.42;;
24147;SDS011;12309;51.450;-2.624;2023-04-07T10:22:09;6.30;;;1.40;;
24147;SDS011;12309;51.450;-2.624;2023-04-07T10:24:48;9.95;;;1.48;;
24147;SDS011;12309;51.450;-2.624;2023-04-07T10:27:44;9.48;;;1.60;;
24147;SDS011;12309;51.450;-2.624;2023-04-07T10:30:27;5.90;;;1.23;;
24147;SDS011;12309;51.450;-2.624;2023-04-07T10:32:56;4.85;;;1.30;;
24147;SDS011;12309;51.450;-2.624;2023-04-07T10:35:22;5.72;;;1.40;;
24147;SDS011;12309;51.450;-2.624;2023-04-07T10:40:32;5.97;;;1.65;;
24147;SDS011;12309;51.450;-2.624;2023-04-07T10:42:59;3.85;;;1.20;;
24147;SDS011;12309;51.450;-2.624;2023-04-07T10:48:11;5.10;;;1.17;;
24147;SDS011;12309;51.450;-2.624;2023-04-07T10:50:38;7.88;;;1.40;;
24147;SDS011;12309;51.450;-2.624;2023-04-07T10:53:07;6.68;;;1.48;;
24147;SDS011;12309;51.450;-2.624;2023-04-07T11:03:39;2.90;;;0.90;;
24147;SDS011;12309;51.450;-2.624;2023-04-07T11:06:07;6.30;;;1.10;;
24147;SDS011;12309;51.450;-2.624;2023-04-07T11:08:41;3.10;;;0.80;;
24147;SDS011;12309;51.450;-2.624;2023-04-07T11:11:09;5.50;;;0.88;;
24147;SDS011;12309;51.450;-2.624;2023-04-07T11:13:42;7.38;;;1.50;;
24147;SDS011;12309;51.450;-2.624;2023-04-07T11:16:12;4.45;;;1.23;;
24147;SDS011;12309;51.450;-2.624;2023-04-07T11:18:43;3.65;;;1.20;;
24147;SDS011;12309;51.450;-2.624;2023-04-07T11:21:16;6.35;;;1.35;;
24147;SDS011;12309;51.450;-2.624;2023-04-07T11:23:42;5.43;;;1.35;;
24147;SDS011;12309;51.450;-2.624;2023-04-07T11:26:10;5.20;;;1.20;;
24147;SDS011;12309;51.450;-2.624;2023-04-07T11:28:44;7.22;;;1.60;;
24147;SDS011;12309;51.450;-2.624;2023-04-07T11:31:11;4.72;;;1.10;;
24147;SDS011;12309;51.450;-2.624;2023-04-07T11:33:36;6.70;;;1.50;;
24147;SDS011;12309;51.450;-2.624;2023-04-07T11:36:05;6.30;;;1.42;;
24147;SDS011;12309;51.450;-2.624;2023-04-07T11:38:35;7.10;;;1.38;;
24147;SDS011;12309;51.450;-2.624;2023-04-07T11:41:11;4.60;;;1.10;;
24147;SDS011;12309;51.450;-2.624;2023-04-07T11:43:38;4.63;;;1.35;;
24147;SDS011;12309;51.450;-2.624;2023-04-07T11:48:34;3.42;;;1.25;;
24147;SDS011;12309;51.450;-2.624;2023-04-07T11:51:01;3.53;;;1.10;;
24147;SDS011;12309;51.450;-2.624;2023-04-07T11:53:28;3.53;;;0.80;;
24147;SDS011;12309;51.450;-2.624;2023-04-07T11:56:08;2.45;;;0.80;;
24147;SDS011;12309;51.450;-2.624;2023-04-07T11:58:36;4.95;;;1.50;;
24147;SDS011;12309;51.450;-2.624;2023-04-07T12:01:04;3.53;;;1.20;;
24147;SDS011;12309;51.450;-2.624;2023-04-07T12:03:36;3.75;;;1.10;;
24147;SDS011;12309;51.450;-2.624;2023-04-07T12:06:02;1.75;;;0.80;;
24147;SDS011;12309;51.450;-2.624;2023-04-07T12:08:42;2.83;;;0.63;;
24147;SDS011;12309;51.450;-2.624;2023-04-07T12:11:09;2.15;;;0.80;;
24147;SDS011;12309;51.450;-2.624;2023-04-07T12:13:35;3.13;;;1.15;;
24147;SDS011;12309;51.450;-2.624;2023-04-07T12:16:01;2.60;;;0.90;;
24147;SDS011;12309;51.450;-2.624;2023-04-07T12:18:27;2.88;;;0.75;;
24147;SDS011;12309;51.450;-2.624;2023-04-07T12:20:54;2.85;;;0.98;;
24147;SDS011;12309;51.450;-2.624;2023-04-07T12:23:21;1.98;;;0.60;;
24147;SDS011;12309;51.450;-2.624;2023-04-07T12:25:47;3.70;;;0.82;;
24147;SDS011;12309;51.450;-2.624;2023-04-07T12:28:13;4.13;;;0.80;;
24147;SDS011;12309;51.450;-2.624;2023-04-07T12:30:38;3.28;;;0.93;;
24147;SDS011;12309;51.450;-2.624;2023-04-07T12:33:04;2.60;;;0.73;;
24147;SDS011;12309;51.450;-2.624;2023-04-07T12:35:30;4.38;;;0.98;;
24147;SDS011;12309;51.450;-2.624;2023-04-07T12:37:56;2.92;;;0.80;;
24147;SDS011;12309;51.450;-2.624;2023-04-07T12:40:22;0.73;;;0.38;;
24147;SDS011;12309;51.450;-2.624;2023-04-07T12:42:48;1.58;;;0.60;;
24147;SDS011;12309;51.450;-2.624;2023-04-07T12:45:14;1.90;;;0.65;;
24147;SDS011;12309;51.450;-2.624;2023-04-07T12:47:40;2.28;;;0.60;;
24147;SDS011;12309;51.450;-2.624;2023-04-07T12:50:06;3.10;;;0.70;;
24147;SDS011;12309;51.450;-2.624;2023-04-07T12:52:32;1.40;;;0.55;;
24147;SDS011;12309;51.450;-2.624;2023-04-07T12:54:58;1.40;;;0.60;;
24147;SDS011;12309;51.450;-2.624;2023-04-07T12:57:23;3.20;;;0.70;;
24147;SDS011;12309;51.450;-2.624;2023-04-07T12:59:49;1.15;;;0.50;;
24147;SDS011;12309;51.450;-2.624;2023-04-07T13:02:15;0.88;;;0.45;;
24147;SDS011;12309;51.450;-2.624;2023-04-07T13:04:42;1.25;;;0.40;;
24147;SDS011;12309;51.450;-2.624;2023-04-07T13:07:10;3.05;;;0.60;;
24147;SDS011;12309;51.450;-2.624;2023-04-07T13:09:37;2.33;;;0.70;;
24147;SDS011;12309;51.450;-2.624;2023-04-07T13:12:03;2.17;;;0.60;;
24147;SDS011;12309;51.450;-2.624;2023-04-07T13:14:29;2.28;;;0.70;;
24147;SDS011;12309;51.450;-2.624;2023-04-07T13:16:54;3.60;;;0.65;;
24147;SDS011;12309;51.450;-2.624;2023-04-07T13:19:20;1.63;;;0.57;;
24147;SDS011;12309;51.450;-2.624;2023-04-07T13:21:46;2.13;;;0.70;;
24147;SDS011;12309;51.450;-2.624;2023-04-07T13:24:11;2.30;;;0.60;;
24147;SDS011;12309;51.450;-2.624;2023-04-07T13:26:37;2.05;;;0.75;;
24147;SDS011;12309;51.450;-2.624;2023-04-07T13:29:02;2.75;;;0.60;;
24147;SDS011;12309;51.450;-2.624;2023-04-07T13:31:28;1.40;;;0.43;;
24147;SDS011;12309;51.450;-2.624;2023-04-07T13:33:54;1.35;;;0.70;;
24147;SDS011;12309;51.450;-2.624;2023-04-07T13:36:20;1.90;;;0.50;;
24147;SDS011;12309;51.450;-2.624;2023-04-07T13:38:46;1.63;;;0.50;;
24147;SDS011;12309;51.450;-2.624;2023-04-07T13:41:11;1.52;;;0.70;;
24147;SDS011;12309;51.450;-2.624;2023-04-07T13:43:37;3.20;;;0.52;;
24147;SDS011;12309;51.450;-2.624;2023-04-07T13:46:02;1.25;;;0.40;;
24147;SDS011;12309;51.450;-2.624;2023-04-07T13:48:28;2.38;;;0.60;;
24147;SDS011;12309;51.450;-2.624;2023-04-07T13:50:53;4.32;;;0.60;;
24147;SDS011;12309;51.450;-2.624;2023-04-07T13:53:19;1.40;;;0.40;;
24147;SDS011;12309;51.450;-2.624;2023-04-07T13:55:45;0.80;;;0.40;;
24147;SDS011;12309;51.450;-2.624;2023-04-07T13:58:11;1.70;;;0.55;;
24147;SDS011;12309;51.450;-2.624;2023-04-07T14:00:37;2.67;;;0.60;;
24147;SDS011;12309;51.450;-2.624;2023-04-07T14:03:04;1.08;;;0.50;;
24147;SDS011;12309;51.450;-2.624;2023-04-07T14:05:30;2.33;;;0.60;;
24147;SDS011;12309;51.450;-2.624;2023-04-07T14:07:56;1.63;;;0.60;;
24147;SDS011;12309;51.450;-2.624;2023-04-07T14:10:21;2.45;;;0.90;;
24147;SDS011;12309;51.450;-2.624;2023-04-07T14:12:47;4.18;;;0.80;;
24147;SDS011;12309;51.450;-2.624;2023-04-07T14:15:12;1.92;;;0.60;;
24147;SDS011;12309;51.450;-2.624;2023-04-07T14:17:38;2.75;;;0.50;;
24147;SDS011;12309;51.450;-2.624;2023-04-07T14:20:04;1.48;;;0.60;;
24147;SDS011;12309;51.450;-2.624;2023-04-07T14:22:30;1.20;;;0.40;;
24147;SDS011;12309;51.450;-2.624;2023-04-07T14:24:55;3.05;;;0.88;;
24147;SDS011;12309;51.450;-2.624;2023-04-07T14:27:21;1.75;;;0.50;;
24147;SDS011;12309;51.450;-2.624;2023-04-07T14:29:47;1.75;;;0.60;;
24147;SDS011;12309;51.450;-2.624;2023-04-07T14:32:13;3.97;;;0.80;;
24147;SDS011;12309;51.450;-2.624;2023-04-07T14:34:39;3.80;;;1.10;;
24147;SDS011;12309;51.450;-2.624;2023-04-07T14:37:05;2.58;;;1.08;;
24147;SDS011;12309;51.450;-2.624;2023-04-07T14:39:31;3.15;;;0.70;;
24147;SDS011;12309;51.450;-2.624;2023-04-07T14:41:57;1.85;;;0.60;;
24147;SDS011;12309;51.450;-2.624;2023-04-07T14:44:25;1.15;;;0.40;;
24147;SDS011;12309;51.450;-2.624;2023-04-07T14:46:53;2.10;;;0.52;;
24147;SDS011;12309;51.450;-2.624;2023-04-07T14:49:18;2.17;;;0.50;;
24147;SDS011;12309;51.450;-2.624;2023-04-07T14:51:44;1.45;;;0.40;;
24147;SDS011;12309;51.450;-2.624;2023-04-07T14:54:10;0.93;;;0.35;;
24147;SDS011;12309;51.450;-2.624;2023-04-07T14:56:36;0.52;;;0.20;;
24147;SDS011;12309;51.450;-2.624;2023-04-07T14:59:01;1.63;;;0.50;;
24147;SDS011;12309;51.450;-2.624;2023-04-07T15:01:27;0.98;;;0.40;;